Time;durP1;ratioP1;P1;durP2;ratioP2;P2;SDS_P1;SDS_P2;PMS_P1;PMS_P2;Temp;Humidity;BMP_temperature;BMP_pressure;BME280_temperature;BME280_humidity;BME280_pressure;Samples;Min_cycle;Max_cycle;Signal;HPM_P1;HPM_P2
2023/12/28 00:02:23;;;;;;;0.00;0.00;;;9.20;89.50;;;;;;5064412;28;20044;-68
2023/12/28 00:04:48;;;;;;;0.00;0.00;;;9.30;89.70;;;;;;5049835;28;20165;-68
2023/12/28 00:07:14;;;;;;;0.00;0.00;;;9.30;89.70;;;;;;5068448;28;20043;-68
2023/12/28 00:09:39;;;;;;;0.00;0.00;;;9.40;89.90;;;;;;5067515;28;20044;-68
2023/12/28 00:12:05;;;;;;;0.00;0.00;;;9.50;89.70;;;;;;5064984;28;20414;-68
2023/12/28 00:14:31;;;;;;;0.05;0.05;;;9.60;89.80;;;;;;5068036;28;20094;-68
2023/12/28 00:16:56;;;;;;;0.00;0.00;;;9.70;90.00;;;;;;5067403;28;20048;-68
2023/12/28 00:19:22;;;;;;;0.47;0.47;;;9.70;89.80;;;;;;5068315;28;20451;-68
2023/12/28 00:21:48;;;;;;;1.35;1.10;;;9.90;89.70;;;;;;5049706;28;20094;-68
2023/12/28 00:24:15;;;;;;;0.43;0.15;;;10.00;89.40;;;;;;5068534;28;20453;-68
2023/12/28 00:26:41;;;;;;;1.20;1.15;;;10.10;89.30;;;;;;5067548;28;20048;-68
2023/12/28 00:29:06;;;;;;;0.17;0.17;;;10.00;89.30;;;;;;5068144;28;20060;-68
2023/12/28 00:31:32;;;;;;;0.00;0.00;;;10.20;88.90;;;;;;5067497;28;20094;-68
2023/12/28 00:33:58;;;;;;;0.00;0.00;;;10.10;88.80;;;;;;5050408;28;20075;-68
2023/12/28 00:36:23;;;;;;;0.00;0.00;;;10.10;88.90;;;;;;5063707;28;20039;-68
2023/12/28 00:38:49;;;;;;;0.00;0.00;;;10.20;88.70;;;;;;5045773;28;20538;-68
2023/12/28 00:41:14;;;;;;;0.00;0.00;;;10.10;88.90;;;;;;5066367;28;20112;-68
2023/12/28 00:43:40;;;;;;;0.00;0.00;;;10.10;88.70;;;;;;5057811;28;20041;-68
2023/12/28 00:46:06;;;;;;;6.55;3.20;;;10.10;88.70;;;;;;5047643;28;20068;-68
2023/12/28 00:48:31;;;;;;;0.15;0.15;;;10.10;88.60;;;;;;5064967;28;20044;-68
2023/12/28 00:50:58;;;;;;;0.00;0.00;;;10.00;88.60;;;;;;5049350;28;20370;-68
2023/12/28 00:53:26;;;;;;;0.00;0.00;;;10.00;88.70;;;;;;5059970;28;20052;-68
2023/12/28 00:55:51;;;;;;;0.00;0.00;;;9.90;88.80;;;;;;5047815;28;20045;-68
2023/12/28 00:58:17;;;;;;;0.00;0.00;;;10.10;88.60;;;;;;5058254;28;20082;-68
2023/12/28 01:00:42;;;;;;;0.38;0.38;;;10.00;88.50;;;;;;5057774;28;21425;-68
2023/12/28 01:03:08;;;;;;;0.52;0.52;;;9.90;88.40;;;;;;5048032;28;20037;-68
2023/12/28 01:05:34;;;;;;;0.08;0.08;;;10.00;88.40;;;;;;5063038;28;20040;-68
2023/12/28 01:07:59;;;;;;;5.28;3.20;;;9.90;88.30;;;;;;5067258;28;20517;-68
2023/12/28 01:10:25;;;;;;;0.00;0.00;;;9.90;88.30;;;;;;5060788;28;20040;-68
2023/12/28 01:12:51;;;;;;;0.38;0.38;;;9.90;88.50;;;;;;5047429;28;20044;-68
2023/12/28 01:15:17;;;;;;;0.00;0.00;;;9.90;88.20;;;;;;5045924;28;20117;-68
2023/12/28 01:17:43;;;;;;;0.10;0.10;;;10.00;88.30;;;;;;5064282;28;20056;-68
2023/12/28 01:20:09;;;;;;;0.90;0.75;;;9.90;88.30;;;;;;5063716;28;20040;-68
2023/12/28 01:22:35;;;;;;;1.33;1.27;;;9.90;88.20;;;;;;5049780;28;20097;-68
2023/12/28 01:25:00;;;;;;;0.00;0.00;;;9.90;88.40;;;;;;5067267;28;20048;-68
2023/12/28 01:27:26;;;;;;;0.55;0.55;;;9.90;88.50;;;;;;5068109;28;20426;-68
2023/12/28 01:29:52;;;;;;;0.90;0.90;;;10.00;88.50;;;;;;5054350;28;20464;-68
2023/12/28 01:32:17;;;;;;;0.00;0.00;;;10.00;88.60;;;;;;5047628;28;20037;-68
2023/12/28 01:34:43;;;;;;;0.00;0.00;;;10.00;88.60;;;;;;5066340;28;20525;-68
2023/12/28 01:37:09;;;;;;;2.45;1.05;;;10.00;88.70;;;;;;5067388;28;20093;-68
2023/12/28 01:39:34;;;;;;;0.68;0.68;;;9.90;88.80;;;;;;5067098;28;20032;-69
2023/12/28 01:42:00;;;;;;;0.98;0.88;;;10.00;88.80;;;;;;5049869;28;20144;-69
2023/12/28 01:44:25;;;;;;;0.10;0.10;;;10.00;88.90;;;;;;5059203;28;20044;-69
2023/12/28 01:46:52;;;;;;;2.00;1.83;;;10.00;89.00;;;;;;5067765;28;20041;-69
2023/12/28 01:49:18;;;;;;;0.10;0.10;;;10.00;88.90;;;;;;5066154;28;20040;-69
2023/12/28 01:51:45;;;;;;;0.10;0.10;;;10.10;88.70;;;;;;5067180;28;20049;-68
2023/12/28 01:54:11;;;;;;;0.00;0.00;;;10.10;88.70;;;;;;5049942;28;20049;-69
2023/12/28 01:56:37;;;;;;;0.00;0.00;;;10.10;88.60;;;;;;5049975;28;20517;-69
2023/12/28 01:59:03;;;;;;;0.00;0.00;;;10.20;88.50;;;;;;5064229;28;20506;-68
2023/12/28 02:01:28;;;;;;;0.00;0.00;;;10.20;88.10;;;;;;5045085;28;20044;-69
2023/12/28 02:03:55;;;;;;;0.00;0.00;;;10.20;88.00;;;;;;5060496;28;20804;-69
2023/12/28 02:06:23;;;;;;;0.65;0.65;;;10.20;87.90;;;;;;5067132;28;20041;-69
2023/12/28 02:08:48;;;;;;;0.00;0.00;;;10.20;87.80;;;;;;5065772;28;20041;-69
2023/12/28 02:11:14;;;;;;;0.00;0.00;;;10.20;87.90;;;;;;5066697;28;20040;-69
2023/12/28 02:13:40;;;;;;;0.20;0.20;;;10.10;87.80;;;;;;5063070;28;20513;-69
2023/12/28 02:16:12;;;;;;;0.17;0.17;;;10.20;87.70;;;;;;5049584;28;20045;-69
2023/12/28 02:18:43;;;;;;;0.00;0.00;;;10.10;87.70;;;;;;5052595;28;20033;-69
2023/12/28 02:21:09;;;;;;;0.30;0.30;;;10.10;87.80;;;;;;5053346;28;20060;-68
2023/12/28 02:23:35;;;;;;;0.10;0.10;;;10.10;88.00;;;;;;5057424;28;20049;-68
2023/12/28 02:26:01;;;;;;;0.00;0.00;;;10.10;87.90;;;;;;5065211;28;20043;-68
2023/12/28 02:28:27;;;;;;;1.55;1.45;;;10.00;88.10;;;;;;5066709;28;20060;-68
2023/12/28 02:30:52;;;;;;;0.00;0.00;;;9.90;88.00;;;;;;5057688;28;20141;-69
2023/12/28 02:33:26;;;;;;;0.10;0.10;;;9.90;88.00;;;;;;5052270;28;20123;-69
2023/12/28 02:35:57;;;;;;;0.00;0.00;;;9.90;88.10;;;;;;5067252;28;20045;-69
2023/12/28 02:38:24;;;;;;;0.00;0.00;;;9.90;88.30;;;;;;5049374;28;20041;-69
2023/12/28 02:40:50;;;;;;;0.63;0.50;;;9.90;88.20;;;;;;5049583;28;20104;-69
2023/12/28 02:43:16;;;;;;;0.00;0.00;;;9.90;88.30;;;;;;5067026;28;20515;-68
2023/12/28 02:45:42;;;;;;;0.65;0.65;;;9.80;88.40;;;;;;5032699;28;20170;-68
2023/12/28 02:48:08;;;;;;;0.00;0.00;;;9.90;88.50;;;;;;5045381;28;20104;-68
2023/12/28 02:50:34;;;;;;;0.00;0.00;;;9.90;88.50;;;;;;5065035;28;20117;-69
2023/12/28 02:53:00;;;;;;;0.00;0.00;;;9.90;88.60;;;;;;5047145;28;20045;-69
2023/12/28 02:55:26;;;;;;;0.00;0.00;;;9.90;88.70;;;;;;5058722;28;20045;-69
2023/12/28 02:57:55;;;;;;;0.00;0.00;;;9.80;88.70;;;;;;5049044;28;20413;-69
2023/12/28 03:00:21;;;;;;;0.10;0.10;;;9.90;88.50;;;;;;5067122;28;20041;-68
2023/12/28 03:02:47;;;;;;;0.00;0.00;;;9.80;88.50;;;;;;5068268;28;20045;-69
2023/12/28 03:05:13;;;;;;;0.00;0.00;;;9.80;88.50;;;;;;5070703;28;20048;-68
2023/12/28 03:07:40;;;;;;;0.45;0.45;;;9.80;88.70;;;;;;5068714;28;20040;-68
2023/12/28 03:10:06;;;;;;;0.00;0.00;;;9.90;88.70;;;;;;5070319;28;20055;-69
2023/12/28 03:12:32;;;;;;;0.00;0.00;;;9.80;88.60;;;;;;5063338;28;20418;-69
2023/12/28 03:14:58;;;;;;;0.00;0.00;;;9.70;88.60;;;;;;5035888;28;20182;-69
2023/12/28 03:17:24;;;;;;;0.03;0.03;;;9.70;88.70;;;;;;5069795;28;20123;-69
2023/12/28 03:19:49;;;;;;;0.00;0.00;;;9.70;88.60;;;;;;5069871;28;20083;-69
2023/12/28 03:22:15;;;;;;;0.00;0.00;;;9.60;88.70;;;;;;5052105;28;20040;-69
2023/12/28 03:24:41;;;;;;;0.00;0.00;;;9.70;88.70;;;;;;5067526;28;20166;-69
2023/12/28 03:27:06;;;;;;;0.05;0.05;;;9.70;88.80;;;;;;5061022;28;20053;-69
2023/12/28 03:29:33;;;;;;;0.10;0.10;;;9.60;88.80;;;;;;5060967;28;20094;-69
2023/12/28 03:31:59;;;;;;;0.00;0.00;;;9.60;88.80;;;;;;5051167;28;20728;-69
2023/12/28 03:34:26;;;;;;;0.00;0.00;;;9.60;88.70;;;;;;5049423;28;20051;-69
2023/12/28 03:36:53;;;;;;;0.00;0.00;;;9.60;88.50;;;;;;5035338;28;20098;-69
2023/12/28 03:39:19;;;;;;;0.25;0.25;;;9.60;88.60;;;;;;5060296;28;20088;-69
2023/12/28 03:41:44;;;;;;;0.22;0.22;;;9.70;88.60;;;;;;5069005;28;20086;-69
2023/12/28 03:44:10;;;;;;;0.00;0.00;;;9.70;88.50;;;;;;5069730;28;20414;-69
2023/12/28 03:46:36;;;;;;;0.00;0.00;;;9.70;88.30;;;;;;5069902;28;20040;-69
2023/12/28 03:49:01;;;;;;;0.00;0.00;;;9.70;88.40;;;;;;5068504;28;20383;-69
2023/12/28 03:51:27;;;;;;;0.05;0.05;;;9.70;88.30;;;;;;5069659;28;20898;-69
2023/12/28 03:53:53;;;;;;;1.25;1.15;;;9.70;88.40;;;;;;5068850;28;20059;-69
2023/12/28 03:56:23;;;;;;;0.00;0.00;;;9.70;88.20;;;;;;5069592;28;20048;-69
2023/12/28 03:58:50;;;;;;;3.50;1.48;;;9.70;88.20;;;;;;5034497;28;20052;-69
2023/12/28 04:01:17;;;;;;;0.00;0.00;;;9.70;88.30;;;;;;5068901;28;20056;-69
2023/12/28 04:03:43;;;;;;;0.00;0.00;;;9.60;88.30;;;;;;5060751;28;20045;-69
2023/12/28 04:06:09;;;;;;;0.00;0.00;;;9.60;88.40;;;;;;5062266;28;20043;-69
2023/12/28 04:08:34;;;;;;;0.63;0.63;;;9.60;88.30;;;;;;5068151;28;20703;-69
2023/12/28 04:11:00;;;;;;;0.00;0.00;;;9.60;88.20;;;;;;5068636;28;20044;-69
2023/12/28 04:13:26;;;;;;;0.05;0.05;;;9.60;88.30;;;;;;5068836;28;20040;-69
2023/12/28 04:15:51;;;;;;;0.00;0.00;;;9.60;88.30;;;;;;5067003;28;20698;-69
2023/12/28 04:18:17;;;;;;;0.00;0.00;;;9.60;88.40;;;;;;5068457;28;20036;-69
2023/12/28 04:20:44;;;;;;;2.28;1.65;;;9.70;88.30;;;;;;5061232;28;20044;-69
2023/12/28 04:23:10;;;;;;;0.00;0.00;;;9.60;88.30;;;;;;5050720;28;20517;-69
2023/12/28 04:25:35;;;;;;;0.00;0.00;;;9.60;88.40;;;;;;5058563;28;20037;-69
2023/12/28 04:28:01;;;;;;;0.03;0.03;;;9.60;88.30;;;;;;5069013;28;20688;-69
2023/12/28 04:30:28;;;;;;;0.00;0.00;;;9.60;88.30;;;;;;5061852;28;20585;-69
2023/12/28 04:32:53;;;;;;;0.00;0.00;;;9.70;88.30;;;;;;5051309;28;20067;-69
2023/12/28 04:35:19;;;;;;;0.00;0.00;;;9.70;88.20;;;;;;5061127;28;20597;-69
2023/12/28 04:37:45;;;;;;;5.28;2.75;;;9.90;87.50;;;;;;5068341;28;20036;-69
2023/12/28 04:40:14;;;;;;;0.40;0.40;;;10.00;86.80;;;;;;5063195;28;20040;-69
2023/12/28 04:42:40;;;;;;;0.20;0.20;;;10.10;86.60;;;;;;5067441;28;20055;-69
2023/12/28 04:45:06;;;;;;;0.00;0.00;;;10.10;86.90;;;;;;5049117;28;20040;-69
2023/12/28 04:47:32;;;;;;;0.80;0.80;;;10.10;86.90;;;;;;5068447;28;20041;-69
2023/12/28 04:49:57;;;;;;;3.28;1.60;;;10.10;86.50;;;;;;5066984;28;20044;-69
2023/12/28 04:52:23;;;;;;;0.00;0.00;;;10.10;86.30;;;;;;5067439;28;20045;-69
2023/12/28 04:54:48;;;;;;;0.00;0.00;;;10.10;86.30;;;;;;5067103;28;20041;-69
2023/12/28 04:57:14;;;;;;;0.43;0.28;;;10.20;86.30;;;;;;5067546;28;20753;-69
2023/12/28 04:59:40;;;;;;;0.00;0.00;;;10.10;86.20;;;;;;5049261;28;20060;-69
2023/12/28 05:02:06;;;;;;;0.00;0.00;;;10.10;86.40;;;;;;5067491;28;20121;-69
2023/12/28 05:04:32;;;;;;;0.00;0.00;;;10.10;86.10;;;;;;5067321;28;20059;-69
2023/12/28 05:06:58;;;;;;;0.00;0.00;;;10.20;86.40;;;;;;5066687;28;20053;-69
2023/12/28 05:09:24;;;;;;;0.32;0.28;;;10.20;86.40;;;;;;5049259;28;20044;-69
2023/12/28 05:11:49;;;;;;;0.00;0.00;;;10.10;86.10;;;;;;5058081;28;20502;-69
2023/12/28 05:14:15;;;;;;;0.15;0.15;;;10.20;86.00;;;;;;5052139;28;20214;-69
2023/12/28 05:16:41;;;;;;;0.00;0.00;;;10.30;86.10;;;;;;5067020;28;20686;-69
2023/12/28 05:19:06;;;;;;;0.82;0.82;;;10.40;85.50;;;;;;5049129;28;20044;-69
2023/12/28 05:21:32;;;;;;;0.00;0.00;;;10.40;84.90;;;;;;5066266;28;20117;-69
2023/12/28 05:23:58;;;;;;;1.00;0.85;;;10.40;85.20;;;;;;5049172;28;20061;-69
2023/12/28 05:26:24;;;;;;;0.15;0.15;;;10.50;85.00;;;;;;5058045;28;20040;-69
2023/12/28 05:28:49;;;;;;;0.10;0.10;;;10.50;84.90;;;;;;5049227;28;20060;-69
2023/12/28 05:31:15;;;;;;;0.00;0.00;;;10.50;85.10;;;;;;5047933;28;20049;-69
2023/12/28 05:33:40;;;;;;;0.00;0.00;;;10.40;85.00;;;;;;5066708;28;20609;-69
2023/12/28 05:36:07;;;;;;;0.00;0.00;;;10.40;85.20;;;;;;5051666;28;20518;-69
2023/12/28 05:38:33;;;;;;;0.00;0.00;;;10.40;85.10;;;;;;5045086;28;20041;-69
2023/12/28 05:40:59;;;;;;;0.00;0.00;;;10.40;85.00;;;;;;5064904;28;20406;-68
2023/12/28 05:43:24;;;;;;;0.13;0.13;;;10.30;85.00;;;;;;5049205;28;20048;-69
2023/12/28 05:45:50;;;;;;;0.00;0.00;;;10.30;85.20;;;;;;5063184;28;20549;-69
2023/12/28 05:48:16;;;;;;;0.10;0.10;;;10.20;85.20;;;;;;5061987;28;20110;-69
2023/12/28 05:50:41;;;;;;;0.00;0.00;;;10.40;85.30;;;;;;5048098;28;20052;-69
2023/12/28 05:53:07;;;;;;;26.85;3.05;;;10.40;84.80;;;;;;5067033;28;20419;-69
2023/12/28 05:55:33;;;;;;;0.00;0.00;;;10.40;85.10;;;;;;5066037;28;20127;-69
2023/12/28 05:57:58;;;;;;;0.10;0.10;;;10.40;85.10;;;;;;5066468;28;20459;-69
2023/12/28 06:00:25;;;;;;;0.00;0.00;;;10.50;85.10;;;;;;5058171;28;20094;-69
2023/12/28 06:02:51;;;;;;;0.20;0.20;;;10.30;85.10;;;;;;5066042;28;20109;-69
2023/12/28 06:05:17;;;;;;;7.03;2.38;;;10.40;85.10;;;;;;5061543;28;20052;-69
2023/12/28 06:07:43;;;;;;;0.00;0.00;;;10.50;84.90;;;;;;5065576;28;20048;-69
2023/12/28 06:10:09;;;;;;;0.00;0.00;;;10.40;84.90;;;;;;5056924;28;20064;-69
2023/12/28 06:12:36;;;;;;;0.00;0.00;;;10.50;85.00;;;;;;5065587;28;20089;-69
2023/12/28 06:15:03;;;;;;;0.20;0.20;;;10.50;84.90;;;;;;5061891;28;20146;-69
2023/12/28 06:17:28;;;;;;;0.10;0.10;;;10.40;84.90;;;;;;5065835;28;20584;-69
2023/12/28 06:19:54;;;;;;;0.10;0.10;;;10.50;84.80;;;;;;5063785;28;20185;-69
2023/12/28 06:22:19;;;;;;;0.00;0.00;;;10.40;85.00;;;;;;5066196;28;20548;-68
2023/12/28 06:24:45;;;;;;;0.00;0.00;;;10.60;84.60;;;;;;5065908;28;20084;-68
2023/12/28 06:27:11;;;;;;;4.65;1.30;;;10.50;84.30;;;;;;5059277;28;20769;-68
2023/12/28 06:29:37;;;;;;;22.92;0.85;;;10.60;84.60;;;;;;5064681;28;20056;-68
2023/12/28 06:32:03;;;;;;;0.00;0.00;;;10.70;83.80;;;;;;5065616;28;20060;-69
2023/12/28 06:34:28;;;;;;;2.17;0.75;;;10.80;83.60;;;;;;5065161;28;20072;-68
2023/12/28 06:36:54;;;;;;;0.00;0.00;;;10.80;83.40;;;;;;5056730;28;20041;-69
2023/12/28 06:39:19;;;;;;;0.00;0.00;;;10.90;83.40;;;;;;5067657;28;20040;-68
2023/12/28 06:41:48;;;;;;;0.00;0.00;;;10.90;83.20;;;;;;5059809;28;20450;-68
2023/12/28 06:44:14;;;;;;;0.00;0.00;;;11.00;83.00;;;;;;5050003;28;20052;-69
2023/12/28 06:46:40;;;;;;;2.15;1.95;;;11.00;83.10;;;;;;5050828;28;20560;-69
2023/12/28 06:49:06;;;;;;;0.57;0.28;;;11.00;83.00;;;;;;5059223;28;20044;-69
2023/12/28 06:51:33;;;;;;;0.00;0.00;;;11.10;82.90;;;;;;5067567;28;20052;-69
2023/12/28 06:53:58;;;;;;;0.10;0.10;;;11.10;82.40;;;;;;5068514;28;20149;-68
2023/12/28 06:56:25;;;;;;;0.00;0.00;;;11.10;82.30;;;;;;5068479;28;20550;-68
2023/12/28 06:58:50;;;;;;;0.10;0.10;;;11.00;82.70;;;;;;5068903;28;20675;-69
2023/12/28 07:01:16;;;;;;;0.47;0.47;;;11.10;82.40;;;;;;5050228;28;20051;-69
2023/12/28 07:03:42;;;;;;;0.10;0.10;;;11.10;82.40;;;;;;5068285;28;20117;-69
2023/12/28 07:06:08;;;;;;;0.45;0.45;;;11.00;82.60;;;;;;5068081;28;20414;-69
2023/12/28 07:08:34;;;;;;;1.27;1.17;;;11.00;82.70;;;;;;5049945;28;20123;-69
2023/12/28 07:10:59;;;;;;;0.00;0.00;;;11.10;82.50;;;;;;5050875;28;20427;-69
2023/12/28 07:13:25;;;;;;;7.35;3.70;;;11.10;82.40;;;;;;5051215;28;20110;-69
2023/12/28 07:15:51;;;;;;;0.00;0.00;;;11.10;82.50;;;;;;5062221;28;20053;-68
2023/12/28 07:18:17;;;;;;;0.25;0.25;;;11.10;82.50;;;;;;5084416;28;20087;-71
2023/12/28 07:20:43;;;;;;;3.40;2.15;;;11.10;82.40;;;;;;5068209;28;20135;-68
2023/12/28 07:23:11;;;;;;;0.50;0.50;;;11.10;82.40;;;;;;5068163;28;20418;-68
2023/12/28 07:25:37;;;;;;;0.13;0.13;;;11.20;82.50;;;;;;5068378;28;20048;-68
2023/12/28 07:28:03;;;;;;;0.88;0.88;;;11.10;82.80;;;;;;5063608;28;20402;-68
2023/12/28 07:30:29;;;;;;;0.25;0.25;;;11.10;83.00;;;;;;5067717;28;20056;-68
2023/12/28 07:32:55;;;;;;;22.48;1.45;;;11.10;83.00;;;;;;5068671;28;20052;-68
2023/12/28 07:35:20;;;;;;;0.00;0.00;;;11.10;82.90;;;;;;5063527;28;20060;-68
2023/12/28 07:37:46;;;;;;;0.00;0.00;;;11.10;82.90;;;;;;5065274;28;20045;-68
2023/12/28 07:40:13;;;;;;;3.83;2.17;;;11.10;83.00;;;;;;5064498;28;20798;-69
2023/12/28 07:42:39;;;;;;;0.00;0.00;;;11.10;83.20;;;;;;5067987;28;20037;-69
2023/12/28 07:45:05;;;;;;;5.13;1.95;;;11.10;83.40;;;;;;5053898;28;20059;-69
2023/12/28 07:47:30;;;;;;;0.10;0.10;;;11.10;83.70;;;;;;5065588;28;20406;-68
2023/12/28 07:49:56;;;;;;;3.85;1.20;;;11.10;83.70;;;;;;5068217;28;20052;-69
2023/12/28 07:52:22;;;;;;;0.08;0.08;;;11.10;83.70;;;;;;5066797;28;20158;-69
2023/12/28 07:54:48;;;;;;;0.65;0.65;;;11.10;83.50;;;;;;5067599;28;20059;-67
2023/12/28 07:57:13;;;;;;;1.55;0.80;;;11.00;83.70;;;;;;5051784;28;20999;-67
2023/12/28 07:59:39;;;;;;;0.03;0.03;;;11.10;83.50;;;;;;5031709;28;20059;-69
2023/12/28 08:02:05;;;;;;;0.00;0.00;;;11.10;83.70;;;;;;5048128;28;20708;-70
2023/12/28 08:04:31;;;;;;;0.55;0.55;;;11.10;83.70;;;;;;5064019;28;20045;-69
2023/12/28 08:06:58;;;;;;;0.65;0.65;;;11.20;83.50;;;;;;5046893;28;20144;-69
2023/12/28 08:09:23;;;;;;;0.00;0.00;;;11.10;83.70;;;;;;5065810;28;20048;-70
2023/12/28 08:11:49;;;;;;;1.02;1.02;;;11.10;83.60;;;;;;5066196;28;20045;-69
2023/12/28 08:14:15;;;;;;;3.13;2.15;;;11.20;83.70;;;;;;5064650;28;20043;-69
2023/12/28 08:16:40;;;;;;;0.35;0.35;;;11.10;83.70;;;;;;5063073;28;20670;-69
2023/12/28 08:19:06;;;;;;;3.75;0.73;;;11.10;83.50;;;;;;5063779;28;20045;-69
2023/12/28 08:21:32;;;;;;;0.10;0.10;;;11.10;83.60;;;;;;5047254;28;20083;-68
2023/12/28 08:23:57;;;;;;;5.68;2.85;;;11.20;83.30;;;;;;5048221;28;20032;-69
2023/12/28 08:26:23;;;;;;;0.00;0.00;;;11.20;83.20;;;;;;5066134;28;20044;-69
2023/12/28 08:28:48;;;;;;;0.80;0.80;;;11.20;83.20;;;;;;5068204;28;20717;-68
2023/12/28 08:31:14;;;;;;;0.57;0.55;;;11.20;83.00;;;;;;5050932;28;20040;-67
2023/12/28 08:33:40;;;;;;;0.47;0.47;;;11.20;83.00;;;;;;5048320;28;20045;-68
2023/12/28 08:36:07;;;;;;;0.28;0.25;;;11.10;83.00;;;;;;5056642;28;20036;-68
2023/12/28 08:38:33;;;;;;;3.70;2.40;;;11.10;83.20;;;;;;5060619;28;20076;-68
2023/12/28 08:40:59;;;;;;;0.10;0.10;;;11.10;83.00;;;;;;5048080;28;20080;-68
2023/12/28 08:43:24;;;;;;;2.75;1.85;;;11.20;83.10;;;;;;5049597;28;20040;-68
2023/12/28 08:45:50;;;;;;;0.20;0.20;;;11.10;83.30;;;;;;5058379;28;20063;-68
2023/12/28 08:48:16;;;;;;;0.93;0.63;;;11.10;83.10;;;;;;5067091;28;20493;-68
2023/12/28 08:50:41;;;;;;;0.00;0.00;;;11.20;83.40;;;;;;5067473;28;20046;-68
2023/12/28 08:53:07;;;;;;;0.10;0.10;;;11.30;83.10;;;;;;5065966;28;20070;-68
2023/12/28 08:55:33;;;;;;;2.03;1.88;;;11.30;83.20;;;;;;5064668;28;20044;-68
2023/12/28 08:57:59;;;;;;;6.75;2.72;;;11.20;83.40;;;;;;5067126;28;20059;-68
2023/12/28 09:00:25;;;;;;;2.80;2.03;;;11.10;83.40;;;;;;5051781;28;20041;-68
2023/12/28 09:02:51;;;;;;;3.15;1.02;;;11.20;83.70;;;;;;5055393;28;20101;-69
2023/12/28 09:05:17;;;;;;;0.00;0.00;;;11.20;83.50;;;;;;5061820;28;20048;-68
2023/12/28 09:07:43;;;;;;;0.08;0.08;;;11.10;83.60;;;;;;5066613;28;20050;-68
2023/12/28 09:10:12;;;;;;;0.45;0.45;;;11.10;83.50;;;;;;5066778;28;20759;-68
2023/12/28 09:12:40;;;;;;;1.95;1.08;;;11.20;83.40;;;;;;5066520;28;20131;-68
2023/12/28 09:15:06;;;;;;;0.00;0.00;;;11.20;83.50;;;;;;5059353;28;20040;-68
2023/12/28 09:17:32;;;;;;;4.68;2.45;;;11.20;83.50;;;;;;5054486;28;20123;-68
2023/12/28 09:19:58;;;;;;;3.92;1.55;;;11.20;83.80;;;;;;5058748;28;20460;-68
2023/12/28 09:22:24;;;;;;;0.32;0.32;;;11.20;83.90;;;;;;5067958;28;20040;-69
2023/12/28 09:24:50;;;;;;;1.77;1.63;;;11.20;83.20;;;;;;5067694;28;20809;-69
2023/12/28 09:27:15;;;;;;;0.00;0.00;;;11.30;82.90;;;;;;5068547;28;20040;-69
2023/12/28 09:29:41;;;;;;;1.27;1.00;;;11.20;83.20;;;;;;5067484;28;20037;-69
2023/12/28 09:32:06;;;;;;;0.40;0.40;;;11.20;83.50;;;;;;5067736;28;20040;-69
2023/12/28 09:34:32;;;;;;;1.95;0.90;;;11.20;83.40;;;;;;5067698;28;20051;-69
2023/12/28 09:36:58;;;;;;;0.00;0.00;;;11.30;83.30;;;;;;5067319;28;20515;-69
2023/12/28 09:39:24;;;;;;;5.93;2.08;;;11.20;83.10;;;;;;5068066;28;20141;-70
2023/12/28 09:41:56;;;;;;;0.20;0.20;;;11.10;83.30;;;;;;5067317;28;20049;-69
2023/12/28 09:44:22;;;;;;;0.55;0.55;;;11.20;83.10;;;;;;5068407;28;20124;-70
2023/12/28 09:46:48;;;;;;;0.00;0.00;;;11.30;83.10;;;;;;5067041;28;20044;-69
2023/12/28 09:49:14;;;;;;;0.08;0.08;;;11.20;83.40;;;;;;5067338;28;20048;-69
2023/12/28 09:51:40;;;;;;;0.00;0.00;;;11.30;83.20;;;;;;5067275;28;20056;-69
2023/12/28 09:54:05;;;;;;;0.00;0.00;;;11.30;83.00;;;;;;5067311;28;20048;-69
2023/12/28 09:56:32;;;;;;;0.00;0.00;;;11.30;83.00;;;;;;5067062;28;20049;-69
2023/12/28 09:58:59;;;;;;;0.00;0.00;;;11.30;83.20;;;;;;5065618;28;20043;-69
2023/12/28 10:01:24;;;;;;;0.00;0.00;;;11.30;83.40;;;;;;5068068;28;20093;-69
2023/12/28 10:03:50;;;;;;;0.00;0.00;;;11.30;83.00;;;;;;5067497;28;20445;-69
2023/12/28 10:06:16;;;;;;;0.57;0.57;;;11.40;83.00;;;;;;5067251;28;20049;-69
2023/12/28 10:08:48;;;;;;;0.08;0.08;;;11.40;82.50;;;;;;5067601;28;20048;-68
2023/12/28 10:11:18;;;;;;;1.02;0.95;;;11.30;82.90;;;;;;5064415;28;20130;-69
2023/12/28 10:13:44;;;;;;;0.10;0.10;;;11.30;82.80;;;;;;5066308;28;20036;-68
2023/12/28 10:16:11;;;;;;;0.00;0.00;;;11.40;82.50;;;;;;5071589;28;20048;-69
2023/12/28 10:18:42;;;;;;;0.08;0.08;;;11.40;82.40;;;;;;5073168;28;20044;-68
2023/12/28 10:21:08;;;;;;;3.40;3.03;;;11.30;82.40;;;;;;5074077;28;20090;-68
2023/12/28 10:23:34;;;;;;;0.10;0.10;;;11.50;82.40;;;;;;5073896;28;20121;-68
2023/12/28 10:25:59;;;;;;;0.00;0.00;;;11.50;82.20;;;;;;5076008;28;20036;-69
2023/12/28 10:28:25;;;;;;;0.57;0.57;;;11.40;82.60;;;;;;5074015;28;20263;-69
2023/12/28 10:30:56;;;;;;;0.47;0.47;;;11.40;82.60;;;;;;5073623;28;20048;-69
2023/12/28 10:33:22;;;;;;;0.00;0.00;;;11.30;82.70;;;;;;5071007;28;20049;-69
2023/12/28 10:35:50;;;;;;;3.13;2.85;;;11.40;82.40;;;;;;5071317;28;20041;-69
2023/12/28 10:38:17;;;;;;;0.10;0.10;;;11.30;82.70;;;;;;5069994;28;20564;-69
2023/12/28 10:40:44;;;;;;;0.00;0.00;;;11.30;83.10;;;;;;5071051;28;21650;-69
2023/12/28 10:43:14;;;;;;;1.13;0.98;;;11.40;82.80;;;;;;5071268;28;20053;-69
2023/12/28 10:45:40;;;;;;;0.28;0.28;;;11.30;82.80;;;;;;5070480;28;20049;-69
2023/12/28 10:48:13;;;;;;;0.00;0.00;;;11.40;82.80;;;;;;5070941;28;20048;-69
2023/12/28 10:50:41;;;;;;;0.00;0.00;;;11.30;82.80;;;;;;5070605;28;20045;-67
2023/12/28 10:53:25;;;;;;;0.63;0.63;;;11.30;82.90;;;;;;5071549;28;20048;-68
2023/12/28 10:56:15;;;;;;;0.10;0.10;;;11.40;82.60;;;;;;5070430;28;20082;-68
2023/12/28 10:58:58;;;;;;;0.35;0.35;;;11.40;82.60;;;;;;5070974;28;20449;-69
2023/12/28 11:01:35;;;;;;;0.22;0.22;;;11.50;82.60;;;;;;5069758;28;20561;-69
2023/12/28 11:04:16;;;;;;;0.00;0.00;;;11.50;82.20;;;;;;5070599;28;20045;-69
2023/12/28 11:06:43;;;;;;;0.45;0.45;;;11.50;82.30;;;;;;5070382;28;20036;-69
2023/12/28 11:09:10;;;;;;;0.98;0.47;;;11.50;82.50;;;;;;5057232;28;20636;-69
2023/12/28 11:11:38;;;;;;;0.00;0.00;;;11.40;82.50;;;;;;5070524;28;20040;-69
2023/12/28 11:14:04;;;;;;;0.00;0.00;;;11.50;82.60;;;;;;5070273;28;20495;-69
2023/12/28 11:16:32;;;;;;;0.65;0.65;;;11.40;82.60;;;;;;5070285;28;20395;-69
2023/12/28 11:18:58;;;;;;;0.57;0.57;;;11.40;82.70;;;;;;5070405;28;20387;-69
2023/12/28 11:21:25;;;;;;;0.10;0.10;;;11.40;82.70;;;;;;5069618;28;20048;-69
2023/12/28 11:23:51;;;;;;;0.00;0.00;;;11.40;82.80;;;;;;5069713;28;20105;-68
2023/12/28 11:26:22;;;;;;;0.73;0.73;;;11.30;82.90;;;;;;5052893;28;20487;-68
2023/12/28 11:28:48;;;;;;;0.00;0.00;;;11.30;83.00;;;;;;5070229;28;20134;-68
2023/12/28 11:31:15;;;;;;;0.00;0.00;;;11.40;83.00;;;;;;5070106;28;20040;-69
2023/12/28 11:33:48;;;;;;;0.10;0.10;;;11.30;83.10;;;;;;5069829;28;20088;-69
2023/12/28 11:36:31;;;;;;;0.03;0.03;;;11.30;82.90;;;;;;5069770;28;20411;-69
2023/12/28 11:39:02;;;;;;;0.00;0.00;;;11.30;82.60;;;;;;5070000;28;20083;-69
2023/12/28 11:41:27;;;;;;;0.03;0.03;;;11.30;82.40;;;;;;5069806;28;20048;-69
2023/12/28 11:43:54;;;;;;;0.65;0.65;;;11.40;82.30;;;;;;5070197;28;20046;-69
2023/12/28 11:46:21;;;;;;;0.10;0.10;;;11.30;82.70;;;;;;5070061;28;20580;-69
2023/12/28 11:48:47;;;;;;;0.00;0.00;;;11.30;82.50;;;;;;5069885;28;20052;-69
2023/12/28 11:51:13;;;;;;;4.97;1.45;;;11.30;82.40;;;;;;5069831;28;20171;-68
2023/12/28 11:53:39;;;;;;;0.00;0.00;;;11.30;82.50;;;;;;5069822;28;20071;-68
2023/12/28 11:56:09;;;;;;;0.10;0.10;;;11.20;82.80;;;;;;5069517;28;20127;-69
2023/12/28 11:58:35;;;;;;;0.10;0.10;;;11.20;82.50;;;;;;5069551;28;20052;-68
2023/12/28 12:01:02;;;;;;;1.27;1.17;;;11.20;82.60;;;;;;5082940;28;20083;-68
2023/12/28 12:03:29;;;;;;;0.10;0.10;;;11.20;82.70;;;;;;5090267;28;20746;-68
2023/12/28 12:05:57;;;;;;;0.50;0.50;;;11.10;82.80;;;;;;5049576;28;20163;-69
2023/12/28 12:08:22;;;;;;;0.03;0.03;;;11.20;82.90;;;;;;5062231;28;20049;-68
2023/12/28 12:10:59;;;;;;;0.00;0.00;;;11.20;82.70;;;;;;5069672;28;20051;-68
2023/12/28 12:13:25;;;;;;;0.00;0.00;;;11.30;82.50;;;;;;5067499;28;20036;-69
2023/12/28 12:15:51;;;;;;;0.08;0.08;;;11.30;82.30;;;;;;5050113;28;20136;-68
2023/12/28 12:18:17;;;;;;;0.25;0.25;;;11.30;82.40;;;;;;5068871;28;20131;-69
2023/12/28 12:20:42;;;;;;;0.17;0.17;;;11.30;82.80;;;;;;5067151;28;20210;-69
2023/12/28 12:23:08;;;;;;;0.57;0.57;;;11.30;82.00;;;;;;5065973;28;20526;-69
2023/12/28 12:25:34;;;;;;;0.73;0.55;;;11.30;82.40;;;;;;5065193;28;20044;-70
2023/12/28 12:27:59;;;;;;;0.20;0.20;;;11.30;82.30;;;;;;5067023;28;20036;-70
2023/12/28 12:30:25;;;;;;;0.22;0.22;;;11.30;82.40;;;;;;5067579;28;20137;-70
2023/12/28 12:32:51;;;;;;;0.00;0.00;;;11.20;82.60;;;;;;5066854;28;20127;-69
2023/12/28 12:35:17;;;;;;;0.82;0.80;;;11.30;82.40;;;;;;5062666;28;20045;-69
2023/12/28 12:37:44;;;;;;;0.00;0.00;;;11.30;82.30;;;;;;5065618;28;20505;-69
2023/12/28 12:40:10;;;;;;;0.05;0.05;;;11.30;82.20;;;;;;5065185;28;20040;-70
2023/12/28 12:42:35;;;;;;;0.05;0.05;;;11.40;82.30;;;;;;5066802;28;20036;-70
2023/12/28 12:45:01;;;;;;;0.20;0.20;;;11.40;82.10;;;;;;5065889;28;20414;-70